Time;durP1;ratioP1;P1;durP2;ratioP2;P2;SDS_P1;SDS_P2;PMS_P1;PMS_P2;Temp;Humidity;BMP_temperature;BMP_pressure;BME280_temperature;BME280_humidity;BME280_pressure;Samples;Min_cycle;Max_cycle;Signal;HPM_P1;HPM_P2
2024/01/24 00:04:34;;;;;;;1.00;0.50;;;23.60;42.40;;;;;;10427970;28;20507;-45
2024/01/24 00:09:36;;;;;;;0.60;0.40;;;23.80;42.50;;;;;;10431422;28;20132;-44
2024/01/24 00:14:38;;;;;;;1.08;0.47;;;24.00;42.60;;;;;;10425636;28;20076;-44
2024/01/24 00:19:41;;;;;;;0.95;0.40;;;24.30;41.60;;;;;;10429003;28;20163;-48
2024/01/24 00:31:16;;;;;;;1.05;0.50;;;24.40;41.70;;;;;;10485180;27;20394;-47
2024/01/24 00:36:17;;;;;;;0.82;0.40;;;24.40;42.60;;;;;;10439248;28;20041;-44
2024/01/24 00:41:19;;;;;;;2.15;0.40;;;24.60;42.40;;;;;;10425602;28;20125;-48
2024/01/24 00:46:22;;;;;;;0.60;0.30;;;24.20;43.50;;;;;;10431108;28;20045;-46
2024/01/24 00:53:06;;;;;;;0.30;0.30;;;24.50;42.20;;;;;;10616802;27;20125;-44
2024/01/24 00:58:07;;;;;;;0.40;0.40;;;24.50;42.90;;;;;;10536319;28;20093;-54
2024/01/24 01:03:34;;;;;;;1.73;0.30;;;24.50;42.80;;;;;;10529944;27;20357;-44
2024/01/24 01:08:35;;;;;;;0.50;0.30;;;24.10;44.10;;;;;;10435084;28;20050;-46
2024/01/24 01:13:37;;;;;;;1.95;0.40;;;24.80;42.70;;;;;;10430295;28;20127;-46
2024/01/24 01:18:40;;;;;;;0.30;0.30;;;24.90;42.70;;;;;;10486377;28;20055;-44
2024/01/24 01:23:42;;;;;;;2.05;0.40;;;25.00;42.50;;;;;;10482334;28;20051;-44
2024/01/24 01:28:43;;;;;;;0.80;0.40;;;24.70;43.30;;;;;;10485364;28;20413;-44
2024/01/24 01:33:46;;;;;;;1.27;0.30;;;24.90;42.70;;;;;;10492751;28;20067;-44
2024/01/24 01:38:48;;;;;;;1.48;0.40;;;25.30;42.10;;;;;;10487484;28;20067;-44
2024/01/24 01:43:49;;;;;;;2.58;0.52;;;25.00;41.80;;;;;;10486992;28;20057;-46
2024/01/24 01:48:56;;;;;;;1.38;0.50;;;24.90;42.20;;;;;;10493306;28;20051;-45
2024/01/24 01:53:57;;;;;;;2.83;0.47;;;24.90;42.20;;;;;;10475936;28;20041;-45
2024/01/24 01:58:59;;;;;;;1.60;0.55;;;24.90;42.70;;;;;;10483758;28;20135;-43
2024/01/24 02:04:02;;;;;;;2.35;0.38;;;25.00;42.10;;;;;;10483004;28;21557;-44
2024/01/24 02:09:08;;;;;;;2.55;0.40;;;25.10;42.20;;;;;;10481578;28;20201;-45
2024/01/24 02:14:11;;;;;;;3.55;0.82;;;24.90;42.40;;;;;;10458879;28;20647;-43
2024/01/24 02:19:14;;;;;;;5.75;0.70;;;24.50;42.90;;;;;;10450931;28;20093;-46
2024/01/24 02:24:16;;;;;;;2.47;0.75;;;24.60;42.60;;;;;;10461201;28;20127;-49
2024/01/24 02:29:18;;;;;;;4.28;0.50;;;24.50;42.60;;;;;;10456325;28;20037;-44
2024/01/24 02:34:20;;;;;;;3.53;0.60;;;24.10;43.40;;;;;;10445221;28;20041;-44
2024/01/24 02:39:23;;;;;;;5.43;0.60;;;23.90;43.80;;;;;;10455893;28;20063;-46
2024/01/24 02:44:24;;;;;;;1.58;0.57;;;23.70;44.50;;;;;;10453078;28;20160;-43
2024/01/24 02:49:26;;;;;;;0.73;0.50;;;23.60;44.50;;;;;;10451148;28;20037;-46
2024/01/24 02:54:29;;;;;;;0.60;0.50;;;23.50;44.90;;;;;;10451242;28;20045;-46
2024/01/24 02:59:31;;;;;;;0.95;0.60;;;23.50;44.90;;;;;;10457178;28;20048;-47
2024/01/24 03:04:32;;;;;;;0.50;0.40;;;23.40;44.90;;;;;;10463303;28;20048;-47
2024/01/24 03:09:35;;;;;;;3.95;0.40;;;23.30;45.20;;;;;;10439945;28;20733;-43
2024/01/24 03:14:37;;;;;;;2.60;0.55;;;23.20;45.30;;;;;;10452831;28;20121;-48
2024/01/24 03:19:38;;;;;;;0.38;0.38;;;23.20;45.50;;;;;;10451005;28;20044;-44
2024/01/24 03:24:41;;;;;;;1.42;0.30;;;23.20;45.60;;;;;;10446676;28;20124;-44
2024/01/24 03:29:43;;;;;;;1.35;0.30;;;23.20;45.60;;;;;;10447335;28;20128;-47
2024/01/24 03:34:53;;;;;;;0.30;0.30;;;23.00;46.00;;;;;;10454106;28;20502;-44
2024/01/24 03:39:56;;;;;;;0.50;0.30;;;23.10;46.30;;;;;;10460161;28;20044;-44
2024/01/24 03:44:57;;;;;;;1.05;0.50;;;23.00;46.50;;;;;;10459599;28;20048;-44
2024/01/24 03:49:59;;;;;;;1.67;0.50;;;22.80;46.30;;;;;;10449319;28;20059;-45
2024/01/24 03:55:02;;;;;;;1.45;0.60;;;22.70;46.10;;;;;;10452607;28;20063;-49
2024/01/24 04:00:05;;;;;;;2.28;0.63;;;22.50;46.50;;;;;;10446982;28;20148;-44
2024/01/24 04:05:08;;;;;;;3.38;0.80;;;22.50;46.30;;;;;;10450555;28;20104;-45
2024/01/24 04:10:11;;;;;;;2.60;0.95;;;22.70;46.30;;;;;;10448767;28;20052;-45
2024/01/24 04:15:13;;;;;;;1.77;0.95;;;22.90;46.00;;;;;;10456871;28;20044;-44
2024/01/24 04:20:14;;;;;;;3.13;1.20;;;23.20;45.20;;;;;;10469828;28;20050;-48
2024/01/24 04:25:18;;;;;;;2.97;0.90;;;23.30;44.70;;;;;;10440715;28;20041;-45
2024/01/24 04:30:19;;;;;;;3.17;0.95;;;23.50;44.20;;;;;;10454079;28;20045;-44
2024/01/24 04:35:21;;;;;;;5.38;0.95;;;23.50;43.80;;;;;;10447271;28;20053;-43
2024/01/24 04:40:24;;;;;;;1.40;0.77;;;23.70;43.50;;;;;;10447329;28;20055;-51
2024/01/24 04:45:25;;;;;;;2.40;0.90;;;23.80;43.50;;;;;;10447468;28;20048;-44
2024/01/24 04:50:27;;;;;;;3.10;1.10;;;23.80;43.50;;;;;;10457684;28;20053;-47
2024/01/24 04:55:30;;;;;;;3.20;1.13;;;23.80;43.90;;;;;;10460455;28;20040;-44
2024/01/24 05:00:31;;;;;;;3.78;1.30;;;23.90;43.40;;;;;;10448870;28;20140;-46
2024/01/24 05:05:33;;;;;;;2.42;1.00;;;23.80;43.70;;;;;;10448178;28;20053;-43
2024/01/24 05:10:36;;;;;;;6.57;1.45;;;23.80;43.70;;;;;;10446828;28;20041;-44
2024/01/24 05:15:37;;;;;;;4.15;1.52;;;23.80;43.70;;;;;;10444863;28;20495;-45
2024/01/24 05:20:39;;;;;;;5.95;2.28;;;23.70;43.80;;;;;;10447544;28;20518;-44
2024/01/24 05:25:43;;;;;;;6.93;1.90;;;23.50;44.00;;;;;;10450703;28;20513;-46
2024/01/24 05:30:44;;;;;;;5.60;1.98;;;23.50;44.00;;;;;;10456147;28;20505;-44
2024/01/24 05:35:46;;;;;;;7.43;2.45;;;23.30;44.00;;;;;;10444824;28;20053;-44
2024/01/24 05:40:49;;;;;;;7.65;2.15;;;23.40;43.70;;;;;;10438452;28;20517;-44
2024/01/24 05:45:51;;;;;;;9.25;2.53;;;23.50;43.90;;;;;;10450957;28;20487;-44
2024/01/24 05:50:53;;;;;;;7.30;2.22;;;23.80;42.50;;;;;;10449866;28;20064;-43
2024/01/24 05:55:56;;;;;;;10.13;2.65;;;23.90;42.40;;;;;;10453214;28;20048;-45
2024/01/24 06:00:57;;;;;;;8.75;2.33;;;23.70;42.90;;;;;;10448640;28;20047;-44
2024/01/24 06:05:59;;;;;;;6.78;2.00;;;23.60;43.40;;;;;;10463935;28;20123;-46
2024/01/24 06:11:02;;;;;;;6.95;1.98;;;23.30;43.70;;;;;;10453804;28;20045;-47
2024/01/24 06:16:04;;;;;;;5.80;2.42;;;23.30;43.90;;;;;;10447124;28;20053;-45
2024/01/24 06:21:06;;;;;;;7.53;2.33;;;23.30;44.10;;;;;;10452484;28;20500;-44
2024/01/24 06:26:08;;;;;;;14.48;3.20;;;23.30;43.90;;;;;;10456854;28;20045;-47
2024/01/24 06:31:10;;;;;;;21.75;4.25;;;23.20;44.30;;;;;;10449842;28;20063;-45
2024/01/24 06:36:12;;;;;;;22.70;4.55;;;23.20;44.50;;;;;;10454711;28;20137;-45
2024/01/24 06:41:15;;;;;;;15.73;4.53;;;23.10;44.60;;;;;;10446339;28;20045;-46
2024/01/24 06:46:17;;;;;;;21.52;4.15;;;23.00;44.70;;;;;;10454683;28;20040;-48
2024/01/24 06:51:19;;;;;;;17.77;4.03;;;23.00;45.00;;;;;;10457539;28;20037;-45
2024/01/24 06:56:22;;;;;;;12.77;3.92;;;23.10;44.80;;;;;;10443654;28;20050;-45
2024/01/24 07:01:24;;;;;;;11.93;3.80;;;23.10;44.70;;;;;;10452899;28;20094;-46
2024/01/24 07:06:26;;;;;;;16.52;3.95;;;23.10;44.50;;;;;;10450640;28;20159;-45
2024/01/24 07:11:29;;;;;;;14.95;3.90;;;23.00;44.50;;;;;;10445416;28;20095;-47
2024/01/24 07:16:31;;;;;;;15.23;3.55;;;23.00;44.50;;;;;;10449396;28;20048;-47
2024/01/24 07:21:32;;;;;;;18.40;3.42;;;22.80;45.20;;;;;;10439583;28;20077;-47
2024/01/24 07:26:36;;;;;;;16.92;3.75;;;22.70;44.50;;;;;;10442594;28;20047;-46
2024/01/24 07:31:37;;;;;;;11.73;3.05;;;22.80;44.20;;;;;;10443594;28;20048;-46
2024/01/24 07:36:39;;;;;;;12.48;3.40;;;22.80;44.20;;;;;;10444110;28;20042;-46
2024/01/24 07:41:42;;;;;;;12.98;3.30;;;22.90;43.90;;;;;;10449657;28;20398;-48
2024/01/24 07:46:44;;;;;;;16.05;3.28;;;22.80;44.00;;;;;;10452568;28;20131;-48
2024/01/24 07:51:46;;;;;;;10.45;3.42;;;22.60;44.50;;;;;;10456516;28;20115;-47
2024/01/24 07:56:49;;;;;;;9.70;2.95;;;22.70;44.20;;;;;;10450713;28;20125;-46
2024/01/24 08:01:51;;;;;;;11.35;2.80;;;22.60;44.50;;;;;;10460520;28;20050;-44
2024/01/24 08:06:52;;;;;;;11.52;2.80;;;22.50;44.60;;;;;;10450985;28;20055;-50
2024/01/24 08:11:55;;;;;;;11.15;3.05;;;22.60;44.60;;;;;;10443078;28;20124;-46
2024/01/24 08:17:01;;;;;;;12.23;3.28;;;22.60;44.60;;;;;;10456699;28;20128;-47
2024/01/24 08:22:03;;;;;;;12.70;2.90;;;22.60;44.60;;;;;;10453809;28;20465;-46
2024/01/24 08:27:06;;;;;;;11.25;3.10;;;22.60;44.50;;;;;;10441787;28;20052;-49
2024/01/24 08:32:08;;;;;;;12.98;3.30;;;22.60;44.70;;;;;;10445226;28;20049;-47
2024/01/24 08:37:09;;;;;;;13.35;2.70;;;22.50;45.20;;;;;;10456396;28;20052;-47
2024/01/24 08:42:12;;;;;;;11.23;3.10;;;22.70;44.50;;;;;;10451678;28;20453;-48
2024/01/24 08:47:14;;;;;;;9.50;3.58;;;22.60;44.50;;;;;;10442787;28;20057;-49
2024/01/24 08:52:16;;;;;;;9.65;3.10;;;22.60;44.30;;;;;;10447546;28;20049;-48
2024/01/24 08:57:18;;;;;;;9.68;3.25;;;22.50;43.80;;;;;;10446378;28;20051;-48
2024/01/24 09:02:20;;;;;;;7.90;2.90;;;22.50;43.90;;;;;;10444099;28;20047;-48
2024/01/24 09:07:22;;;;;;;6.75;2.67;;;22.60;43.50;;;;;;10449524;28;20507;-48
2024/01/24 09:12:25;;;;;;;10.45;3.13;;;22.50;43.60;;;;;;10445319;28;20478;-44
2024/01/24 09:17:26;;;;;;;9.23;2.78;;;22.40;43.50;;;;;;10450032;28;20115;-49
2024/01/24 09:22:28;;;;;;;7.43;2.50;;;22.40;43.90;;;;;;10450642;28;20067;-47
2024/01/24 09:27:31;;;;;;;8.35;2.60;;;22.30;43.60;;;;;;10447111;28;20045;-46
2024/01/24 09:32:33;;;;;;;10.55;2.90;;;22.30;43.70;;;;;;10452620;28;20140;-48
2024/01/24 09:37:35;;;;;;;7.68;2.35;;;22.40;43.40;;;;;;10457936;28;20132;-46
2024/01/24 09:42:41;;;;;;;8.57;2.58;;;22.30;43.40;;;;;;10450018;28;20049;-47
2024/01/24 09:47:42;;;;;;;7.55;2.30;;;22.30;43.40;;;;;;10456517;28;20051;-47
2024/01/24 09:52:44;;;;;;;7.18;2.70;;;22.30;43.10;;;;;;10464403;28;20046;-46
2024/01/24 09:57:47;;;;;;;8.07;2.55;;;22.10;43.50;;;;;;10453128;28;20504;-48
2024/01/24 10:02:48;;;;;;;8.57;2.88;;;22.20;43.40;;;;;;10452061;28;20056;-47
2024/01/24 10:07:50;;;;;;;7.53;2.55;;;22.30;42.90;;;;;;10451700;28;20059;-47
2024/01/24 10:12:53;;;;;;;9.20;2.55;;;22.30;42.70;;;;;;10453778;28;20059;-47
2024/01/24 10:17:56;;;;;;;6.70;2.38;;;22.30;42.30;;;;;;10446009;28;20045;-47
2024/01/24 10:22:57;;;;;;;8.65;2.50;;;22.20;42.30;;;;;;10457954;28;20053;-45
2024/01/24 10:28:00;;;;;;;9.38;2.90;;;22.20;42.70;;;;;;10453706;28;20045;-48
2024/01/24 10:33:02;;;;;;;8.18;2.60;;;22.00;42.60;;;;;;10450631;28;20128;-47
2024/01/24 10:38:04;;;;;;;7.80;2.75;;;21.90;42.90;;;;;;10453244;28;20119;-51
2024/01/24 10:43:10;;;;;;;9.32;2.90;;;22.00;42.90;;;;;;10442892;28;20071;-47
2024/01/24 10:48:11;;;;;;;8.13;2.83;;;21.90;42.70;;;;;;10447484;28;20056;-49
2024/01/24 10:53:13;;;;;;;6.57;2.70;;;21.90;42.70;;;;;;10446118;28;20048;-44
2024/01/24 10:58:16;;;;;;;6.68;2.42;;;21.90;42.70;;;;;;10451823;28;20046;-47
2024/01/24 11:03:18;;;;;;;8.60;2.92;;;21.80;42.80;;;;;;10450780;28;20041;-49
2024/01/24 11:08:24;;;;;;;8.18;2.70;;;21.70;42.90;;;;;;10464640;28;20047;-50
2024/01/24 11:13:27;;;;;;;8.55;2.78;;;21.80;42.80;;;;;;10451946;28;20052;-48
2024/01/24 11:18:31;;;;;;;9.35;3.05;;;21.80;42.90;;;;;;10456264;28;20055;-47
2024/01/24 11:23:40;;;;;;;7.90;2.72;;;21.80;42.90;;;;;;10445165;28;20051;-44
2024/01/24 11:28:43;;;;;;;7.80;2.83;;;21.80;42.70;;;;;;10455459;28;20041;-50
2024/01/24 11:34:06;;;;;;;8.07;2.67;;;21.80;42.80;;;;;;10455615;28;20413;-45
2024/01/24 11:39:34;;;;;;;7.15;2.47;;;21.90;42.50;;;;;;10451397;28;20049;-45
2024/01/24 11:44:37;;;;;;;8.38;2.92;;;22.00;42.40;;;;;;10448930;28;20048;-48
2024/01/24 11:49:39;;;;;;;7.65;3.05;;;21.70;43.00;;;;;;10441463;28;20049;-47
2024/01/24 11:54:51;;;;;;;11.75;3.78;;;21.80;42.90;;;;;;10454498;28;20045;-47
2024/01/24 11:59:54;;;;;;;10.43;3.60;;;21.80;43.30;;;;;;10448537;28;20071;-46
2024/01/24 12:04:55;;;;;;;10.13;4.55;;;22.10;43.20;;;;;;10452343;28;20041;-49
2024/01/24 12:09:57;;;;;;;10.00;5.07;;;22.20;43.50;;;;;;10451798;28;20144;-47
2024/01/24 12:15:00;;;;;;;13.43;5.32;;;22.30;43.40;;;;;;10459424;28;20041;-45
2024/01/24 12:20:03;;;;;;;11.35;5.72;;;22.30;43.60;;;;;;10453828;28;20045;-48
2024/01/24 12:25:07;;;;;;;10.73;5.55;;;22.30;43.40;;;;;;10446670;28;20042;-47
2024/01/24 12:30:11;;;;;;;12.75;5.93;;;22.30;42.90;;;;;;10448204;28;20045;-54
2024/01/24 12:35:14;;;;;;;11.27;5.75;;;22.30;43.00;;;;;;10455409;28;20455;-47
2024/01/24 12:40:16;;;;;;;11.55;5.80;;;22.30;43.10;;;;;;10440028;28;20048;-47
2024/01/24 12:45:20;;;;;;;11.88;5.80;;;22.40;43.10;;;;;;10455147;28;20051;-47
2024/01/24 12:50:21;;;;;;;11.57;5.65;;;22.40;43.20;;;;;;10460577;28;20045;-47
2024/01/24 12:55:23;;;;;;;12.73;6.28;;;22.40;43.80;;;;;;10460521;28;20454;-47
2024/01/24 13:00:26;;;;;;;12.85;6.20;;;22.40;44.70;;;;;;10439706;28;20135;-47
2024/01/24 13:05:27;;;;;;;15.35;6.35;;;22.60;44.80;;;;;;10442919;28;20060;-48
2024/01/24 13:10:32;;;;;;;15.60;6.03;;;22.60;48.70;;;;;;10453276;28;20144;-48
2024/01/24 13:15:35;;;;;;;17.00;6.10;;;22.60;49.30;;;;;;10443612;28;20053;-49
2024/01/24 13:20:37;;;;;;;17.40;6.18;;;22.70;50.30;;;;;;10446990;28;20053;-47
2024/01/24 13:25:39;;;;;;;15.70;6.43;;;22.70;49.60;;;;;;10448491;28;20060;-47
2024/01/24 13:30:43;;;;;;;15.45;6.20;;;22.70;49.20;;;;;;10446893;28;20052;-45
2024/01/24 13:35:45;;;;;;;14.38;6.35;;;22.80;47.90;;;;;;10446980;28;20064;-49
2024/01/24 13:40:46;;;;;;;16.70;6.18;;;22.80;47.30;;;;;;10439769;28;20423;-46
2024/01/24 13:45:50;;;;;;;19.58;6.50;;;22.80;47.00;;;;;;10445270;28;20102;-47
2024/01/24 13:50:51;;;;;;;16.75;6.05;;;22.80;46.50;;;;;;10448406;28;20060;-47
2024/01/24 13:55:53;;;;;;;15.10;6.03;;;22.70;46.10;;;;;;10440628;28;20055;-47
2024/01/24 14:00:56;;;;;;;15.45;6.00;;;22.80;45.70;;;;;;10456327;28;20052;-47
2024/01/24 14:05:57;;;;;;;18.58;5.82;;;22.80;45.50;;;;;;10458483;28;20059;-47
2024/01/24 14:10:59;;;;;;;18.27;6.22;;;22.70;45.10;;;;;;10460127;28;20151;-47
2024/01/24 14:16:03;;;;;;;16.88;5.53;;;22.70;44.70;;;;;;10450300;28;20048;-48
2024/01/24 14:21:05;;;;;;;14.57;5.35;;;22.90;44.20;;;;;;10443389;28;20482;-47
2024/01/24 14:26:06;;;;;;;17.35;5.82;;;22.80;43.90;;;;;;10457900;28;20140;-48
2024/01/24 14:31:09;;;;;;;14.40;5.20;;;22.90;43.80;;;;;;10453189;28;20129;-52
2024/01/24 14:36:11;;;;;;;16.40;5.30;;;22.90;43.50;;;;;;10453433;28;20567;-48
2024/01/24 14:41:13;;;;;;;15.52;5.35;;;22.80;43.20;;;;;;10459888;28;20410;-47
2024/01/24 14:46:16;;;;;;;13.98;5.05;;;22.80;43.20;;;;;;10461264;28;20080;-47
2024/01/24 14:51:17;;;;;;;15.55;4.90;;;22.80;43.00;;;;;;10447330;28;20049;-45
2024/01/24 14:56:19;;;;;;;14.07;4.65;;;22.90;42.70;;;;;;10438595;28;20558;-48
2024/01/24 15:01:22;;;;;;;15.75;5.60;;;22.90;42.70;;;;;;10443260;28;20059;-47
2024/01/24 15:06:24;;;;;;;18.70;5.30;;;22.80;42.50;;;;;;10451309;28;20049;-47
2024/01/24 15:11:26;;;;;;;20.05;5.55;;;23.00;42.30;;;;;;10445782;28;20044;-48
2024/01/24 15:16:29;;;;;;;15.45;5.20;;;23.00;42.50;;;;;;10451047;28;20059;-48
2024/01/24 15:21:31;;;;;;;18.17;5.07;;;22.90;42.90;;;;;;10447499;28;20048;-47
2024/01/24 15:26:32;;;;;;;31.40;5.45;;;23.10;42.30;;;;;;10452228;28;20044;-48
2024/01/24 15:31:35;;;;;;;16.73;5.45;;;23.10;42.10;;;;;;10442331;28;20473;-49
2024/01/24 15:36:37;;;;;;;14.82;5.03;;;22.70;43.40;;;;;;10449701;28;20057;-48
2024/01/24 15:41:39;;;;;;;15.38;4.63;;;22.60;44.10;;;;;;10451669;28;20074;-47
2024/01/24 15:46:41;;;;;;;22.20;5.30;;;22.60;44.80;;;;;;10449279;28;20068;-48
2024/01/24 15:51:43;;;;;;;17.85;5.15;;;23.00;43.40;;;;;;10447137;28;20128;-47
2024/01/24 15:56:45;;;;;;;18.23;4.85;;;23.00;44.00;;;;;;10454691;28;20044;-50
2024/01/24 16:01:48;;;;;;;15.55;4.40;;;23.20;44.20;;;;;;10449003;28;20057;-47
2024/01/24 16:06:49;;;;;;;13.68;5.20;;;23.40;43.90;;;;;;10445958;28;20053;-48
2024/01/24 16:11:51;;;;;;;18.13;4.45;;;23.70;42.40;;;;;;10444723;28;20041;-45
2024/01/24 16:16:54;;;;;;;12.77;4.60;;;24.10;41.80;;;;;;10440751;28;20055;-46
2024/01/24 16:21:56;;;;;;;12.90;4.25;;;24.20;41.50;;;;;;10450623;28;20044;-47
2024/01/24 16:26:58;;;;;;;14.02;4.20;;;24.40;41.60;;;;;;10449886;28;20418;-49
2024/01/24 16:32:01;;;;;;;14.85;4.90;;;24.60;41.50;;;;;;10452032;28;20143;-48
2024/01/24 16:37:02;;;;;;;16.83;4.82;;;24.40;41.30;;;;;;10448243;28;20037;-47
2024/01/24 16:42:05;;;;;;;13.13;4.05;;;24.30;41.10;;;;;;10449128;28;20555;-48
2024/01/24 16:47:08;;;;;;;12.57;4.28;;;24.40;40.70;;;;;;10437066;28;20071;-51
2024/01/24 16:52:09;;;;;;;12.88;4.45;;;24.50;40.80;;;;;;10443942;28;20569;-47
2024/01/24 16:57:12;;;;;;;14.20;4.38;;;24.40;41.00;;;;;;10442597;28;20053;-49
2024/01/24 17:02:15;;;;;;;11.73;4.60;;;24.60;40.90;;;;;;10443084;28;20099;-47
2024/01/24 17:07:16;;;;;;;12.23;4.15;;;24.70;40.60;;;;;;10444720;28;20055;-45
2024/01/24 17:12:19;;;;;;;10.75;4.20;;;24.60;40.40;;;;;;10449893;28;20044;-48
2024/01/24 17:17:21;;;;;;;11.05;3.80;;;24.40;40.40;;;;;;10454493;28;20045;-49
2024/01/24 17:22:23;;;;;;;10.85;3.90;;;24.50;40.20;;;;;;10441596;28;20144;-45
2024/01/24 17:27:26;;;;;;;22.75;4.15;;;24.50;40.00;;;;;;10439727;28;20510;-47
2024/01/24 17:32:28;;;;;;;10.02;3.60;;;24.40;40.00;;;;;;10439711;28;20063;-46
2024/01/24 17:37:30;;;;;;;10.75;3.90;;;24.50;39.90;;;;;;10442434;28;20049;-45
2024/01/24 17:42:32;;;;;;;12.88;4.70;;;24.50;39.90;;;;;;10447931;28;20051;-46
2024/01/24 17:47:35;;;;;;;12.48;4.03;;;24.40;39.80;;;;;;10454405;28;20575;-47
2024/01/24 17:52:37;;;;;;;11.35;3.60;;;24.50;40.20;;;;;;10460908;28;20052;-47
2024/01/24 17:57:39;;;;;;;15.15;4.55;;;24.30;40.50;;;;;;10459057;28;20095;-47
2024/01/24 18:02:42;;;;;;;14.30;3.75;;;24.30;41.50;;;;;;10447009;28;20056;-47
2024/01/24 18:07:43;;;;;;;14.50;3.92;;;24.60;41.60;;;;;;10444346;28;20048;-48
2024/01/24 18:12:45;;;;;;;15.27;3.65;;;24.50;42.10;;;;;;10451810;28;20047;-45
2024/01/24 18:17:48;;;;;;;21.42;4.28;;;24.50;42.30;;;;;;10449628;28;20053;-48
2024/01/24 18:22:49;;;;;;;9.38;3.20;;;24.30;43.40;;;;;;10450154;28;20063;-48
2024/01/24 18:27:51;;;;;;;11.80;3.50;;;24.20;43.70;;;;;;10459489;28;20048;-45
2024/01/24 18:32:54;;;;;;;10.75;3.33;;;24.20;43.50;;;;;;10473432;28;20647;-47
2024/01/24 18:37:55;;;;;;;14.00;3.35;;;24.00;43.20;;;;;;10447478;28;20418;-46
2024/01/24 18:42:57;;;;;;;15.65;4.05;;;23.90;43.60;;;;;;10449344;28;20075;-47
2024/01/24 18:48:00;;;;;;;13.82;3.85;;;23.90;43.70;;;;;;10446352;28;20041;-48
2024/01/24 18:53:02;;;;;;;14.45;3.38;;;24.00;43.70;;;;;;10452444;28;20051;-44
2024/01/24 18:58:04;;;;;;;15.70;3.60;;;23.50;45.50;;;;;;10460021;28;20045;-46
2024/01/24 19:03:07;;;;;;;19.42;3.63;;;23.50;46.30;;;;;;10457893;28;20135;-46
2024/01/24 19:08:10;;;;;;;9.13;3.40;;;23.80;46.10;;;;;;10463905;28;20047;-44
2024/01/24 19:13:12;;;;;;;10.10;3.42;;;23.90;46.30;;;;;;10453757;28;20415;-47
2024/01/24 19:18:14;;;;;;;8.63;3.33;;;24.00;46.40;;;;;;10442717;28;20131;-45
2024/01/24 19:23:16;;;;;;;11.25;3.67;;;24.10;45.70;;;;;;10444679;28;20052;-45
2024/01/24 19:28:18;;;;;;;9.35;3.50;;;24.10;45.40;;;;;;10453055;28;20414;-46
2024/01/24 19:33:21;;;;;;;10.40;3.47;;;24.20;44.70;;;;;;10454442;28;20053;-43
2024/01/24 19:38:22;;;;;;;10.55;3.22;;;24.50;43.30;;;;;;10444970;28;20045;-45
2024/01/24 19:43:24;;;;;;;13.38;3.33;;;24.70;42.80;;;;;;10453495;28;20053;-47
2024/01/24 19:48:27;;;;;;;14.25;3.65;;;24.20;44.10;;;;;;10460240;28;20048;-47
2024/01/24 19:53:28;;;;;;;13.82;3.55;;;24.30;44.30;;;;;;10444653;28;20410;-46
2024/01/24 19:58:30;;;;;;;9.60;3.40;;;24.40;43.60;;;;;;10442497;28;20081;-51
2024/01/24 20:03:33;;;;;;;17.85;3.58;;;25.20;42.10;;;;;;10452736;28;20521;-45
2024/01/24 20:08:35;;;;;;;8.75;2.75;;;25.20;42.10;;;;;;10454738;28;20548;-47
2024/01/24 20:13:36;;;;;;;9.63;3.13;;;25.30;42.20;;;;;;10450135;28;20072;-45
2024/01/24 20:18:39;;;;;;;9.38;2.75;;;25.10;42.70;;;;;;10453225;28;20053;-50
2024/01/24 20:23:41;;;;;;;13.70;3.50;;;25.20;42.40;;;;;;10447796;28;20045;-46
2024/01/24 20:28:43;;;;;;;10.73;3.75;;;24.90;42.40;;;;;;10441035;28;20136;-49
2024/01/24 20:33:46;;;;;;;10.48;3.95;;;24.90;42.20;;;;;;10441985;28;20167;-47
2024/01/24 20:38:47;;;;;;;11.73;3.45;;;24.80;42.50;;;;;;10440637;28;20052;-46
2024/01/24 20:43:49;;;;;;;11.95;3.28;;;24.70;42.90;;;;;;10441377;28;20056;-46
2024/01/24 20:48:53;;;;;;;18.73;3.47;;;24.50;43.30;;;;;;10452960;28;20529;-45
2024/01/24 20:53:55;;;;;;;14.45;3.05;;;24.40;43.80;;;;;;10455441;28;20380;-45
2024/01/24 20:58:56;;;;;;;7.47;2.65;;;24.40;43.90;;;;;;10445296;28;20120;-46
2024/01/24 21:03:59;;;;;;;14.30;3.63;;;24.20;44.10;;;;;;10448929;28;20052;-47
2024/01/24 21:09:01;;;;;;;13.38;3.33;;;24.00;43.30;;;;;;10452185;28;20060;-46
2024/01/24 21:14:02;;;;;;;10.93;3.38;;;24.00;43.30;;;;;;10447324;28;20803;-47
2024/01/24 21:19:05;;;;;;;12.70;3.45;;;23.80;43.30;;;;;;10449105;28;20045;-46
2024/01/24 21:24:08;;;;;;;14.07;3.38;;;23.70;43.20;;;;;;10455576;28;20045;-46
2024/01/24 21:29:09;;;;;;;10.60;3.08;;;23.70;43.10;;;;;;10462454;28;20044;-47
2024/01/24 21:34:12;;;;;;;8.52;3.10;;;23.60;43.00;;;;;;10450609;28;20245;-43
2024/01/24 21:39:14;;;;;;;7.75;2.95;;;23.40;43.20;;;;;;10455709;28;20116;-43
2024/01/24 21:44:16;;;;;;;10.80;3.25;;;23.30;43.10;;;;;;10438087;28;20063;-46
2024/01/24 21:49:18;;;;;;;6.65;3.03;;;23.30;43.00;;;;;;10457308;28;20136;-46
2024/01/24 21:54:20;;;;;;;8.18;3.00;;;23.30;43.10;;;;;;10446673;28;20041;-46
2024/01/24 21:59:22;;;;;;;11.40;3.15;;;23.10;43.40;;;;;;10454066;28;20047;-47
2024/01/24 22:04:25;;;;;;;7.53;3.13;;;23.10;43.40;;;;;;10459990;28;20083;-46
2024/01/24 22:09:27;;;;;;;8.52;2.97;;;23.00;43.50;;;;;;10452166;28;20124;-46
2024/01/24 22:14:29;;;;;;;10.07;3.00;;;23.00;43.60;;;;;;10449330;28;20391;-45
2024/01/24 22:19:32;;;;;;;9.40;2.80;;;23.10;43.50;;;;;;10450689;28;20617;-46
2024/01/24 22:24:33;;;;;;;8.98;3.17;;;23.20;43.30;;;;;;10451651;28;20063;-46
2024/01/24 22:29:35;;;;;;;8.85;3.53;;;23.20;43.20;;;;;;10449536;28;20045;-44
2024/01/24 22:34:38;;;;;;;7.22;2.83;;;23.10;43.00;;;;;;10459751;28;20037;-46
2024/01/24 22:39:40;;;;;;;8.57;2.90;;;23.10;42.80;;;;;;10457693;28;20060;-46
2024/01/24 22:44:41;;;;;;;8.90;3.38;;;23.10;42.70;;;;;;10455172;28;20047;-47
2024/01/24 22:49:44;;;;;;;9.40;2.80;;;23.10;42.30;;;;;;10454190;28;20095;-45
2024/01/24 22:54:46;;;;;;;11.60;2.85;;;23.00;42.40;;;;;;10460105;28;20039;-47
2024/01/24 22:59:47;;;;;;;9.75;2.90;;;22.90;42.40;;;;;;10442014;28;20049;-45
2024/01/24 23:04:50;;;;;;;8.77;2.90;;;22.90;42.40;;;;;;10454637;28;20055;-46
2024/01/24 23:09:52;;;;;;;8.13;2.92;;;22.80;42.40;;;;;;10451099;28;20043;-45
2024/01/24 23:14:54;;;;;;;6.30;2.50;;;22.80;42.20;;;;;;10452368;28;20040;-46
2024/01/24 23:19:57;;;;;;;7.53;2.83;;;22.70;42.30;;;;;;10450061;28;20075;-47
2024/01/24 23:24:58;;;;;;;7.07;2.70;;;22.50;42.50;;;;;;10453602;28;20051;-46
2024/01/24 23:30:00;;;;;;;6.60;2.80;;;22.40;42.70;;;;;;10453443;28;20044;-47
2024/01/24 23:35:03;;;;;;;7.78;2.80;;;22.40;42.50;;;;;;10441023;28;20597;-47
2024/01/24 23:40:05;;;;;;;6.68;2.70;;;22.30;42.50;;;;;;10447589;28;20041;-46
2024/01/24 23:45:08;;;;;;;6.57;2.63;;;22.20;42.70;;;;;;10454402;28;20144;-46
2024/01/24 23:50:11;;;;;;;7.70;2.80;;;22.10;42.90;;;;;;10450068;28;20071;-46
2024/01/24 23:55:13;;;;;;;8.20;2.42;;;22.20;42.50;;;;;;10444634;28;20099;-48
